sensor_id;sensor_type;location;lat;lon;timestamp;pressure;altitude;pressure_sealevel;temperature;humidity
46045;BME280;31781;54.094;13.428;2023-01-31T00:01:35;101115.94;;;3.90;66.44
46045;BME280;31781;54.094;13.428;2023-01-31T00:03:38;101118.09;;;3.87;66.27
46045;BME280;31781;54.094;13.428;2023-01-31T00:05:40;101117.25;;;3.86;66.18
46045;BME280;31781;54.094;13.428;2023-01-31T00:07:42;101122.63;;;3.86;66.67
46045;BME280;31781;54.094;13.428;2023-01-31T00:09:43;101121.78;;;3.86;66.29
46045;BME280;31781;54.094;13.428;2023-01-31T00:11:45;101121.91;;;3.84;66.57
46045;BME280;31781;54.094;13.428;2023-01-31T00:13:47;101127.31;;;3.84;66.65
46045;BME280;31781;54.094;13.428;2023-01-31T00:15:49;101124.78;;;3.83;66.48
46045;BME280;31781;54.094;13.428;2023-01-31T00:17:53;101129.47;;;3.81;66.44
46045;BME280;31781;54.094;13.428;2023-01-31T00:19:55;101124.09;;;3.81;66.53
46045;BME280;31781;54.094;13.428;2023-01-31T00:21:56;101135.03;;;3.79;66.52
46045;BME280;31781;54.094;13.428;2023-01-31T00:24:01;101143.09;;;3.79;66.44
46045;BME280;31781;54.094;13.428;2023-01-31T00:26:09;101156.69;;;3.78;66.96
46045;BME280;31781;54.094;13.428;2023-01-31T00:28:11;101153.31;;;3.76;66.59
46045;BME280;31781;54.094;13.428;2023-01-31T00:30:13;101163.25;;;3.75;66.85
46045;BME280;31781;54.094;13.428;2023-01-31T00:32:15;101156.34;;;3.73;67.12
46045;BME280;31781;54.094;13.428;2023-01-31T00:34:20;101170.78;;;3.72;66.63
46045;BME280;31781;54.094;13.428;2023-01-31T00:36:25;101172.63;;;3.71;66.82
46045;BME280;31781;54.094;13.428;2023-01-31T00:38:27;101164.56;;;3.71;66.56
46045;BME280;31781;54.094;13.428;2023-01-31T00:40:28;101178.16;;;3.70;66.59
46045;BME280;31781;54.094;13.428;2023-01-31T00:42:30;101176.47;;;3.69;67.27
46045;BME280;31781;54.094;13.428;2023-01-31T00:44:32;101186.41;;;3.68;67.06
46045;BME280;31781;54.094;13.428;2023-01-31T00:46:34;101196.44;;;3.66;67.09
46045;BME280;31781;54.094;13.428;2023-01-31T00:48:37;101184.00;;;3.65;67.57
46045;BME280;31781;54.094;13.428;2023-01-31T00:50:43;101190.38;;;3.64;66.98
46045;BME280;31781;54.094;13.428;2023-01-31T00:52:44;101195.91;;;3.63;67.22
46045;BME280;31781;54.094;13.428;2023-01-31T00:54:46;101196.94;;;3.62;67.52
46045;BME280;31781;54.094;13.428;2023-01-31T00:56:47;101195.22;;;3.61;67.50
46045;BME280;31781;54.094;13.428;2023-01-31T00:58:49;101190.16;;;3.58;67.71
46045;BME280;31781;54.094;13.428;2023-01-31T01:00:51;101195.38;;;3.59;67.91
46045;BME280;31781;54.094;13.428;2023-01-31T01:02:53;101201.78;;;3.58;67.68
46045;BME280;31781;54.094;13.428;2023-01-31T01:04:54;101198.38;;;3.56;67.65
46045;BME280;31781;54.094;13.428;2023-01-31T01:06:57;101193.16;;;3.55;68.14
46045;BME280;31781;54.094;13.428;2023-01-31T01:08:59;101199.38;;;3.55;68.35
46045;BME280;31781;54.094;13.428;2023-01-31T01:11:05;101208.47;;;3.54;68.04
46045;BME280;31781;54.094;13.428;2023-01-31T01:13:07;101207.59;;;3.54;68.72
46045;BME280;31781;54.094;13.428;2023-01-31T01:15:09;101217.50;;;3.53;67.81
46045;BME280;31781;54.094;13.428;2023-01-31T01:17:11;101207.59;;;3.54;68.60
46045;BME280;31781;54.094;13.428;2023-01-31T01:19:16;101211.41;;;3.51;68.20
46045;BME280;31781;54.094;13.428;2023-01-31T01:21:21;101215.81;;;3.52;68.11
46045;BME280;31781;54.094;13.428;2023-01-31T01:23:24;101203.66;;;3.48;68.49
46045;BME280;31781;54.094;13.428;2023-01-31T01:25:26;101213.56;;;3.48;68.11
46045;BME280;31781;54.094;13.428;2023-01-31T01:27:28;101215.44;;;3.47;68.92
46045;BME280;31781;54.094;13.428;2023-01-31T01:29:29;101223.66;;;3.46;68.86
46045;BME280;31781;54.094;13.428;2023-01-31T01:31:31;101227.34;;;3.44;68.58
46045;BME280;31781;54.094;13.428;2023-01-31T01:33:33;101228.19;;;3.45;69.09
46045;BME280;31781;54.094;13.428;2023-01-31T01:35:35;101228.34;;;3.43;69.12
46045;BME280;31781;54.094;13.428;2023-01-31T01:37:37;101223.09;;;3.42;69.03
46045;BME280;31781;54.094;13.428;2023-01-31T01:39:41;101223.25;;;3.40;68.59
46045;BME280;31781;54.094;13.428;2023-01-31T01:41:43;101220.72;;;3.39;69.02
46045;BME280;31781;54.094;13.428;2023-01-31T01:43:48;101232.34;;;3.39;69.11
46045;BME280;31781;54.094;13.428;2023-01-31T01:45:53;101231.50;;;3.39;68.69
46045;BME280;31781;54.094;13.428;2023-01-31T01:47:58;101241.41;;;3.38;69.16
46045;BME280;31781;54.094;13.428;2023-01-31T01:50:04;101244.22;;;3.37;69.32
46045;BME280;31781;54.094;13.428;2023-01-31T01:52:10;101250.63;;;3.36;68.51
46045;BME280;31781;54.094;13.428;2023-01-31T01:54:16;101251.75;;;3.33;68.88
46045;BME280;31781;54.094;13.428;2023-01-31T01:56:27;101247.22;;;3.34;69.23
46045;BME280;31781;54.094;13.428;2023-01-31T01:58:32;101264.34;;;3.33;68.97
46045;BME280;31781;54.094;13.428;2023-01-31T02:00:37;101266.22;;;3.32;69.20
46045;BME280;31781;54.094;13.428;2023-01-31T02:02:40;101275.28;;;3.31;69.44
46045;BME280;31781;54.094;13.428;2023-01-31T02:04:43;101276.97;;;3.32;69.28
46045;BME280;31781;54.094;13.428;2023-01-31T02:06:48;101273.44;;;3.32;69.43
46045;BME280;31781;54.094;13.428;2023-01-31T02:08:51;101270.03;;;3.30;68.58
46045;BME280;31781;54.094;13.428;2023-01-31T02:10:56;101266.34;;;3.31;69.03
46045;BME280;31781;54.094;13.428;2023-01-31T02:13:01;101270.03;;;3.30;69.03
46045;BME280;31781;54.094;13.428;2023-01-31T02:15:04;101266.66;;;3.28;69.43
46045;BME280;31781;54.094;13.428;2023-01-31T02:17:11;101268.31;;;3.29;68.95
46045;BME280;31781;54.094;13.428;2023-01-31T02:19:18;101271.19;;;3.27;69.74
46045;BME280;31781;54.094;13.428;2023-01-31T02:24:27;101269.34;;;3.28;69.55
46045;BME280;31781;54.094;13.428;2023-01-31T02:29:33;101278.53;;;3.25;69.02
46045;BME280;31781;54.094;13.428;2023-01-31T02:34:26;101304.75;;;3.23;69.50
46045;BME280;31781;54.094;13.428;2023-01-31T02:36:40;101304.75;;;3.23;68.84
46045;BME280;31781;54.094;13.428;2023-01-31T02:38:53;101313.78;;;3.22;68.68
46045;BME280;31781;54.094;13.428;2023-01-31T02:41:01;101309.44;;;3.21;69.08
46045;BME280;31781;54.094;13.428;2023-01-31T02:43:10;101314.66;;;3.23;68.90
46045;BME280;31781;54.094;13.428;2023-01-31T02:45:21;101310.13;;;3.23;68.83
46045;BME280;31781;54.094;13.428;2023-01-31T02:47:40;101310.97;;;3.24;68.72
46045;BME280;31781;54.094;13.428;2023-01-31T02:49:49;101313.78;;;3.22;68.76
46045;BME280;31781;54.094;13.428;2023-01-31T02:51:53;101321.72;;;3.24;68.87
46045;BME280;31781;54.094;13.428;2023-01-31T02:54:00;101320.75;;;3.25;68.43
46045;BME280;31781;54.094;13.428;2023-01-31T02:56:07;101313.66;;;3.24;68.85
46045;BME280;31781;54.094;13.428;2023-01-31T02:58:13;101308.13;;;3.25;69.16
46045;BME280;31781;54.094;13.428;2023-01-31T03:00:17;101305.59;;;3.24;68.48
46045;BME280;31781;54.094;13.428;2023-01-31T03:02:22;101300.91;;;3.26;68.68
46045;BME280;31781;54.094;13.428;2023-01-31T03:04:30;101300.91;;;3.26;69.20
46045;BME280;31781;54.094;13.428;2023-01-31T03:06:53;101306.81;;;3.29;68.65
46045;BME280;31781;54.094;13.428;2023-01-31T03:09:02;101305.28;;;3.27;68.59
46045;BME280;31781;54.094;13.428;2023-01-31T03:11:06;101309.81;;;3.26;68.91
46045;BME280;31781;54.094;13.428;2023-01-31T03:13:17;101307.00;;;3.28;69.02
46045;BME280;31781;54.094;13.428;2023-01-31T03:15:34;101309.69;;;3.28;68.81
46045;BME280;31781;54.094;13.428;2023-01-31T03:17:50;101308.84;;;3.27;69.26
46045;BME280;31781;54.094;13.428;2023-01-31T03:20:00;101310.66;;;3.27;68.99
46045;BME280;31781;54.094;13.428;2023-01-31T03:22:09;101315.06;;;3.28;68.67
46045;BME280;31781;54.094;13.428;2023-01-31T03:24:13;101313.50;;;3.25;68.50
46045;BME280;31781;54.094;13.428;2023-01-31T03:26:16;101320.75;;;3.25;69.27
46045;BME280;31781;54.094;13.428;2023-01-31T03:28:22;101322.41;;;3.26;68.58
46045;BME280;31781;54.094;13.428;2023-01-31T03:30:34;101334.03;;;3.26;68.45
46045;BME280;31781;54.094;13.428;2023-01-31T03:32:44;101332.31;;;3.25;69.12
46045;BME280;31781;54.094;13.428;2023-01-31T03:34:48;101330.66;;;3.24;68.98
46045;BME280;31781;54.094;13.428;2023-01-31T03:36:54;101325.09;;;3.26;68.92
46045;BME280;31781;54.094;13.428;2023-01-31T03:39:15;101327.66;;;3.27;68.56
46045;BME280;31781;54.094;13.428;2023-01-31T03:41:28;101340.38;;;3.25;69.12
46045;BME280;31781;54.094;13.428;2023-01-31T03:43:35;101346.63;;;3.26;68.34
46045;BME280;31781;54.094;13.428;2023-01-31T03:45:44;101337.69;;;3.25;68.98
46045;BME280;31781;54.094;13.428;2023-01-31T03:47:49;101341.41;;;3.24;68.83
46045;BME280;31781;54.094;13.428;2023-01-31T03:49:53;101344.94;;;3.25;68.74
46045;BME280;31781;54.094;13.428;2023-01-31T03:52:02;101364.59;;;3.25;69.16
46045;BME280;31781;54.094;13.428;2023-01-31T03:54:08;101356.53;;;3.25;69.31
46045;BME280;31781;54.094;13.428;2023-01-31T03:56:16;101368.13;;;3.26;69.18
46045;BME280;31781;54.094;13.428;2023-01-31T03:58:21;101367.28;;;3.25;68.55
46045;BME280;31781;54.094;13.428;2023-01-31T04:00:26;101355.69;;;3.25;69.10
46045;BME280;31781;54.094;13.428;2023-01-31T04:02:32;101363.59;;;3.26;69.09
46045;BME280;31781;54.094;13.428;2023-01-31T04:04:39;101365.59;;;3.24;68.91
46045;BME280;31781;54.094;13.428;2023-01-31T04:06:44;101368.28;;;3.24;68.82
46045;BME280;31781;54.094;13.428;2023-01-31T04:08:46;101374.53;;;3.25;68.83
46045;BME280;31781;54.094;13.428;2023-01-31T04:10:50;101377.22;;;3.25;69.50
46045;BME280;31781;54.094;13.428;2023-01-31T04:12:51;101380.88;;;3.24;69.53
46045;BME280;31781;54.094;13.428;2023-01-31T04:14:53;101391.47;;;3.25;69.00
46045;BME280;31781;54.094;13.428;2023-01-31T04:16:55;101382.59;;;3.25;69.63
46045;BME280;31781;54.094;13.428;2023-01-31T04:18:57;101379.91;;;3.25;69.20
46045;BME280;31781;54.094;13.428;2023-01-31T04:20:58;101386.25;;;3.24;69.06
46045;BME280;31781;54.094;13.428;2023-01-31T04:23:00;101383.56;;;3.24;69.23
46045;BME280;31781;54.094;13.428;2023-01-31T04:25:04;101373.66;;;3.24;69.19
46045;BME280;31781;54.094;13.428;2023-01-31T04:27:07;101379.91;;;3.25;69.24
46045;BME280;31781;54.094;13.428;2023-01-31T04:29:10;101374.66;;;3.23;69.54
46045;BME280;31781;54.094;13.428;2023-01-31T04:31:12;101379.19;;;3.23;70.04
46045;BME280;31781;54.094;13.428;2023-01-31T04:33:14;101370.13;;;3.24;70.00
46045;BME280;31781;54.094;13.428;2023-01-31T04:35:15;101370.97;;;3.24;69.56
46045;BME280;31781;54.094;13.428;2023-01-31T04:37:17;101381.75;;;3.24;69.59
46045;BME280;31781;54.094;13.428;2023-01-31T04:39:19;101376.34;;;3.24;70.00
46045;BME280;31781;54.094;13.428;2023-01-31T04:41:21;101375.34;;;3.25;69.92
46045;BME280;31781;54.094;13.428;2023-01-31T04:43:24;101365.44;;;3.26;69.93
46045;BME280;31781;54.094;13.428;2023-01-31T04:45:25;101363.59;;;3.26;70.03
46045;BME280;31781;54.094;13.428;2023-01-31T04:47:27;101371.66;;;3.26;70.17
46045;BME280;31781;54.094;13.428;2023-01-31T04:49:30;101365.59;;;3.24;70.32
46045;BME280;31781;54.094;13.428;2023-01-31T04:51:32;101373.50;;;3.26;70.11
46045;BME280;31781;54.094;13.428;2023-01-31T04:53:34;101362.63;;;3.27;69.64
46045;BME280;31781;54.094;13.428;2023-01-31T04:55:36;101366.28;;;3.26;70.06
46045;BME280;31781;54.094;13.428;2023-01-31T04:57:37;101364.44;;;3.27;69.80
46045;BME280;31781;54.094;13.428;2023-01-31T04:59:40;101361.91;;;3.25;70.32
46045;BME280;31781;54.094;13.428;2023-01-31T05:01:42;101367.16;;;3.27;69.93
46045;BME280;31781;54.094;13.428;2023-01-31T05:03:43;101366.28;;;3.26;70.25
46045;BME280;31781;54.094;13.428;2023-01-31T05:05:46;101364.44;;;3.27;70.37
46045;BME280;31781;54.094;13.428;2023-01-31T05:07:48;101362.63;;;3.27;70.28
46045;BME280;31781;54.094;13.428;2023-01-31T05:09:50;101361.91;;;3.25;69.75
46045;BME280;31781;54.094;13.428;2023-01-31T05:11:51;101361.75;;;3.27;70.21
46045;BME280;31781;54.094;13.428;2023-01-31T05:13:53;101362.63;;;3.27;69.65
46045;BME280;31781;54.094;13.428;2023-01-31T05:15:58;101366.28;;;3.26;70.17
46045;BME280;31781;54.094;13.428;2023-01-31T05:18:02;101359.94;;;3.27;70.08
46045;BME280;31781;54.094;13.428;2023-01-31T05:20:05;101356.38;;;3.27;69.69
46045;BME280;31781;54.094;13.428;2023-01-31T05:22:07;101367.81;;;3.29;69.84
46045;BME280;31781;54.094;13.428;2023-01-31T05:24:08;101375.91;;;3.29;70.47
46045;BME280;31781;54.094;13.428;2023-01-31T05:26:10;101374.91;;;3.30;70.19
46045;BME280;31781;54.094;13.428;2023-01-31T05:28:12;101383.97;;;3.29;69.56
46045;BME280;31781;54.094;13.428;2023-01-31T05:30:14;101384.81;;;3.29;69.93
46045;BME280;31781;54.094;13.428;2023-01-31T05:32:17;101385.66;;;3.30;70.08
46045;BME280;31781;54.094;13.428;2023-01-31T05:34:20;101383.16;;;3.28;69.79
46045;BME280;31781;54.094;13.428;2023-01-31T05:36:22;101386.53;;;3.30;69.77
46045;BME280;31781;54.094;13.428;2023-01-31T05:38:23;101386.66;;;3.29;70.25
46045;BME280;31781;54.094;13.428;2023-01-31T05:40:25;101379.44;;;3.29;70.07
46045;BME280;31781;54.094;13.428;2023-01-31T05:42:29;101377.59;;;3.30;70.56
46045;BME280;31781;54.094;13.428;2023-01-31T05:44:31;101371.38;;;3.29;70.12
46045;BME280;31781;54.094;13.428;2023-01-31T05:46:33;101368.53;;;3.31;69.93
46045;BME280;31781;54.094;13.428;2023-01-31T05:48:38;101370.38;;;3.30;70.82
46045;BME280;31781;54.094;13.428;2023-01-31T05:50:40;101382.84;;;3.31;70.70
46045;BME280;31781;54.094;13.428;2023-01-31T05:52:41;101378.16;;;3.33;71.05
46045;BME280;31781;54.094;13.428;2023-01-31T05:54:43;101376.47;;;3.32;71.31
46045;BME280;31781;54.094;13.428;2023-01-31T05:56:45;101384.56;;;3.32;71.20
46045;BME280;31781;54.094;13.428;2023-01-31T05:58:47;101377.31;;;3.33;71.97
46045;BME280;31781;54.094;13.428;2023-01-31T06:00:49;101373.78;;;3.32;71.47
46045;BME280;31781;54.094;13.428;2023-01-31T06:02:51;101379.16;;;3.32;72.21
46045;BME280;31781;54.094;13.428;2023-01-31T06:04:54;101388.91;;;3.33;72.26
46045;BME280;31781;54.094;13.428;2023-01-31T06:06:56;101382.69;;;3.33;72.93
46045;BME280;31781;54.094;13.428;2023-01-31T06:08:57;101400.69;;;3.32;73.28
46045;BME280;31781;54.094;13.428;2023-01-31T06:11:00;101401.50;;;3.33;73.20
46045;BME280;31781;54.094;13.428;2023-01-31T06:13:02;101403.22;;;3.34;72.79
46045;BME280;31781;54.094;13.428;2023-01-31T06:15:05;101405.03;;;3.33;72.99
46045;BME280;31781;54.094;13.428;2023-01-31T06:17:07;101406.88;;;3.33;73.35
46045;BME280;31781;54.094;13.428;2023-01-31T06:19:08;101417.38;;;3.36;72.67
46045;BME280;31781;54.094;13.428;2023-01-31T06:21:11;101410.13;;;3.36;72.72
46045;BME280;31781;54.094;13.428;2023-01-31T06:23:13;101405.59;;;3.37;73.39
46045;BME280;31781;54.094;13.428;2023-01-31T06:25:15;101405.59;;;3.37;72.65
46045;BME280;31781;54.094;13.428;2023-01-31T06:27:17;101406.47;;;3.37;73.21
46045;BME280;31781;54.094;13.428;2023-01-31T06:29:19;101401.06;;;3.37;72.71
46045;BME280;31781;54.094;13.428;2023-01-31T06:31:20;101402.78;;;3.38;72.97
46045;BME280;31781;54.094;13.428;2023-01-31T06:33:22;101398.25;;;3.39;72.69
46045;BME280;31781;54.094;13.428;2023-01-31T06:35:39;101392.03;;;3.38;72.97
46045;BME280;31781;54.094;13.428;2023-01-31T06:37:42;101399.09;;;3.39;72.93
46045;BME280;31781;54.094;13.428;2023-01-31T06:39:43;101391.84;;;3.40;73.11
46045;BME280;31781;54.094;13.428;2023-01-31T06:41:45;101389.16;;;3.40;73.06
46045;BME280;31781;54.094;13.428;2023-01-31T06:43:47;101384.63;;;3.40;72.59
46045;BME280;31781;54.094;13.428;2023-01-31T06:45:49;101390.88;;;3.41;73.31
46045;BME280;31781;54.094;13.428;2023-01-31T06:47:51;101392.72;;;3.40;73.11
46045;BME280;31781;54.094;13.428;2023-01-31T06:49:52;101398.09;;;3.40;72.78
46045;BME280;31781;54.094;13.428;2023-01-31T06:51:54;101395.25;;;3.42;72.75
46045;BME280;31781;54.094;13.428;2023-01-31T06:53:58;101395.56;;;3.39;73.18
46045;BME280;31781;54.094;13.428;2023-01-31T06:56:00;101397.22;;;3.40;73.26
46045;BME280;31781;54.094;13.428;2023-01-31T06:58:02;101397.22;;;3.40;72.63
46045;BME280;31781;54.094;13.428;2023-01-31T07:00:04;101397.53;;;3.37;73.67
46045;BME280;31781;54.094;13.428;2023-01-31T07:02:08;101402.91;;;3.37;73.01
46045;BME280;31781;54.094;13.428;2023-01-31T07:04:10;101405.59;;;3.37;72.79
46045;BME280;31781;54.094;13.428;2023-01-31T07:06:12;101413.84;;;3.35;73.39
46045;BME280;31781;54.094;13.428;2023-01-31T07:08:14;101412.00;;;3.36;73.72
46045;BME280;31781;54.094;13.428;2023-01-31T07:10:17;101415.69;;;3.35;73.02
46045;BME280;31781;54.094;13.428;2023-01-31T07:12:19;101418.50;;;3.33;73.15
46045;BME280;31781;54.094;13.428;2023-01-31T07:14:21;101419.34;;;3.34;73.60
46045;BME280;31781;54.094;13.428;2023-01-31T07:16:22;101419.34;;;3.34;72.63
46045;BME280;31781;54.094;13.428;2023-01-31T07:18:24;101421.19;;;3.33;73.02
46045;BME280;31781;54.094;13.428;2023-01-31T07:20:26;101418.38;;;3.35;72.72
46045;BME280;31781;54.094;13.428;2023-01-31T07:22:28;101421.06;;;3.35;72.56
46045;BME280;31781;54.094;13.428;2023-01-31T07:24:30;101426.25;;;3.36;72.64
46045;BME280;31781;54.094;13.428;2023-01-31T07:26:34;101428.97;;;3.36;72.99
46045;BME280;31781;54.094;13.428;2023-01-31T07:28:35;101417.09;;;3.39;72.83
46045;BME280;31781;54.094;13.428;2023-01-31T07:30:37;101421.44;;;3.40;72.58
46045;BME280;31781;54.094;13.428;2023-01-31T07:32:42;101421.31;;;3.41;72.95
46045;BME280;31781;54.094;13.428;2023-01-31T07:34:43;101423.88;;;3.43;72.78
46045;BME280;31781;54.094;13.428;2023-01-31T07:36:45;101414.78;;;3.44;72.24
46045;BME280;31781;54.094;13.428;2023-01-31T07:38:47;101410.25;;;3.44;72.64
46045;BME280;31781;54.094;13.428;2023-01-31T07:40:49;101417.19;;;3.47;72.28
46045;BME280;31781;54.094;13.428;2023-01-31T07:42:56;101418.75;;;3.50;72.53
46045;BME280;31781;54.094;13.428;2023-01-31T07:44:58;101415.06;;;3.51;72.38
46045;BME280;31781;54.094;13.428;2023-01-31T07:47:17;101407.69;;;3.53;72.55
46045;BME280;31781;54.094;13.428;2023-01-31T07:49:19;101407.69;;;3.53;72.83
46045;BME280;31781;54.094;13.428;2023-01-31T07:51:20;101402.00;;;3.56;72.37
46045;BME280;31781;54.094;13.428;2023-01-31T07:53:23;101401.69;;;3.59;73.21
46045;BME280;31781;54.094;13.428;2023-01-31T07:55:25;101405.25;;;3.59;73.11
46045;BME280;31781;54.094;13.428;2023-01-31T07:57:29;101403.09;;;3.63;72.95
46045;BME280;31781;54.094;13.428;2023-01-31T07:59:33;101403.81;;;3.65;72.45
46045;BME280;31781;54.094;13.428;2023-01-31T08:01:34;101411.59;;;3.68;73.15
46045;BME280;31781;54.094;13.428;2023-01-31T08:03:37;101403.38;;;3.69;73.03
46045;BME280;31781;54.094;13.428;2023-01-31T08:05:38;101397.81;;;3.71;72.86
46045;BME280;31781;54.094;13.428;2023-01-31T08:07:40;101405.75;;;3.72;72.90
46045;BME280;31781;54.094;13.428;2023-01-31T08:09:42;101398.25;;;3.76;72.69
46045;BME280;31781;54.094;13.428;2023-01-31T08:11:44;101395.38;;;3.77;72.99
46045;BME280;31781;54.094;13.428;2023-01-31T08:13:46;101399.09;;;3.76;73.36
46045;BME280;31781;54.094;13.428;2023-01-31T08:15:51;101396.94;;;3.80;73.04
46045;BME280;31781;54.094;13.428;2023-01-31T08:17:53;101393.94;;;3.83;73.50
46045;BME280;31781;54.094;13.428;2023-01-31T08:19:56;101387.56;;;3.84;73.83
46045;BME280;31781;54.094;13.428;2023-01-31T08:21:57;101390.94;;;3.86;73.30
46045;BME280;31781;54.094;13.428;2023-01-31T08:23:59;101389.78;;;3.88;73.87
46045;BME280;31781;54.094;13.428;2023-01-31T08:26:02;101381.59;;;3.90;73.55
46045;BME280;31781;54.094;13.428;2023-01-31T08:28:05;101383.13;;;3.92;72.95
46045;BME280;31781;54.094;13.428;2023-01-31T08:30:08;101382.00;;;3.95;73.70
46045;BME280;31781;54.094;13.428;2023-01-31T08:32:11;101378.13;;;3.98;73.16
46045;BME280;31781;54.094;13.428;2023-01-31T08:34:13;101380.53;;;4.01;72.94
46045;BME280;31781;54.094;13.428;2023-01-31T08:36:17;101379.53;;;4.02;73.54
46045;BME280;31781;54.094;13.428;2023-01-31T08:38:19;101380.22;;;4.04;73.31
46045;BME280;31781;54.094;13.428;2023-01-31T08:40:21;101379.91;;;4.07;73.36
46045;BME280;31781;54.094;13.428;2023-01-31T08:42:23;101368.16;;;4.08;73.13
46045;BME280;31781;54.094;13.428;2023-01-31T08:44:26;101354.53;;;4.09;73.83
46045;BME280;31781;54.094;13.428;2023-01-31T08:46:30;101351.53;;;4.12;73.23
46045;BME280;31781;54.094;13.428;2023-01-31T08:48:35;101350.38;;;4.15;73.81
46045;BME280;31781;54.094;13.428;2023-01-31T08:50:40;101349.25;;;4.17;73.47
46045;BME280;31781;54.094;13.428;2023-01-31T08:52:42;101344.53;;;4.19;74.13
46045;BME280;31781;54.094;13.428;2023-01-31T08:54:43;101347.09;;;4.21;74.62
46045;BME280;31781;54.094;13.428;2023-01-31T08:56:45;101345.06;;;4.23;74.61
46045;BME280;31781;54.094;13.428;2023-01-31T08:58:47;101328.59;;;4.26;74.64
46045;BME280;31781;54.094;13.428;2023-01-31T09:00:49;101328.28;;;4.29;74.68
46045;BME280;31781;54.094;13.428;2023-01-31T09:02:51;101329.00;;;4.31;74.66
46045;BME280;31781;54.094;13.428;2023-01-31T09:04:55;101327.84;;;4.33;74.24
46045;BME280;31781;54.094;13.428;2023-01-31T09:06:58;101325.84;;;4.35;74.44
46045;BME280;31781;54.094;13.428;2023-01-31T09:08:59;101327.38;;;4.38;74.68
46045;BME280;31781;54.094;13.428;2023-01-31T09:11:02;101324.38;;;4.41;74.59
46045;BME280;31781;54.094;13.428;2023-01-31T09:13:04;101328.44;;;4.45;73.99
46045;BME280;31781;54.094;13.428;2023-01-31T09:15:07;101324.59;;;4.48;74.44
46045;BME280;31781;54.094;13.428;2023-01-31T09:17:08;101324.31;;;4.51;74.49
46045;BME280;31781;54.094;13.428;2023-01-31T09:19:10;101318.59;;;4.54;74.49
46045;BME280;31781;54.094;13.428;2023-01-31T09:21:15;101326.34;;;4.57;74.19
46045;BME280;31781;54.094;13.428;2023-01-31T09:23:17;101321.66;;;4.59;74.59
46045;BME280;31781;54.094;13.428;2023-01-31T09:25:18;101319.66;;;4.61;74.04
46045;BME280;31781;54.094;13.428;2023-01-31T09:27:37;101324.06;;;4.62;74.09
46045;BME280;31781;54.094;13.428;2023-01-31T09:29:40;101313.09;;;4.63;74.18
46045;BME280;31781;54.094;13.428;2023-01-31T09:31:41;101314.63;;;4.66;74.72
46045;BME280;31781;54.094;13.428;2023-01-31T09:33:44;101314.47;;;4.67;74.21
46045;BME280;31781;54.094;13.428;2023-01-31T09:35:54;101308.94;;;4.69;74.53
46045;BME280;31781;54.094;13.428;2023-01-31T09:37:59;101316.00;;;4.70;74.39
46045;BME280;31781;54.094;13.428;2023-01-31T09:40:01;101304.38;;;4.69;75.47
46045;BME280;31781;54.094;13.428;2023-01-31T09:42:10;101316.84;;;4.70;75.25
46045;BME280;31781;54.094;13.428;2023-01-31T09:44:22;101304.22;;;4.71;75.44
46045;BME280;31781;54.094;13.428;2023-01-31T09:46:28;101300.69;;;4.70;75.41
46045;BME280;31781;54.094;13.428;2023-01-31T09:48:36;101309.63;;;4.71;75.65
46045;BME280;31781;54.094;13.428;2023-01-31T09:50:41;101302.38;;;4.71;75.51
46045;BME280;31781;54.094;13.428;2023-01-31T09:52:44;101297.97;;;4.70;75.67
46045;BME280;31781;54.094;13.428;2023-01-31T09:54:48;101293.31;;;4.72;75.59
46045;BME280;31781;54.094;13.428;2023-01-31T09:56:58;101288.75;;;4.73;75.49
46045;BME280;31781;54.094;13.428;2023-01-31T09:59:11;101291.28;;;4.74;75.88
46045;BME280;31781;54.094;13.428;2023-01-31T10:01:22;101284.91;;;4.75;75.86
46045;BME280;31781;54.094;13.428;2023-01-31T10:03:47;101283.72;;;4.78;75.68
46045;BME280;31781;54.094;13.428;2023-01-31T10:05:55;101272.09;;;4.77;75.53
46045;BME280;31781;54.094;13.428;2023-01-31T10:08:05;101270.09;;;4.79;76.13
46045;BME280;31781;54.094;13.428;2023-01-31T10:10:27;101263.53;;;4.82;75.51
46045;BME280;31781;54.094;13.428;2023-01-31T10:12:39;101266.22;;;4.82;75.81
46045;BME280;31781;54.094;13.428;2023-01-31T10:14:46;101260.84;;;4.82;76.61
46045;BME280;31781;54.094;13.428;2023-01-31T10:16:58;101259.66;;;4.84;76.08
46045;BME280;31781;54.094;13.428;2023-01-31T10:19:04;101253.44;;;4.84;76.79
46045;BME280;31781;54.094;13.428;2023-01-31T10:21:10;101251.41;;;4.86;76.55
46045;BME280;31781;54.094;13.428;2023-01-31T10:23:20;101247.88;;;4.85;77.08
46045;BME280;31781;54.094;13.428;2023-01-31T10:25:32;101248.41;;;4.89;76.53
46045;BME280;31781;54.094;13.428;2023-01-31T10:27:39;101233.06;;;4.89;77.09
46045;BME280;31781;54.094;13.428;2023-01-31T10:29:50;101241.03;;;4.91;77.50
46045;BME280;31781;54.094;13.428;2023-01-31T10:31:59;101234.59;;;4.92;77.58
46045;BME280;31781;54.094;13.428;2023-01-31T10:34:08;101220.97;;;4.94;77.03
46045;BME280;31781;54.094;13.428;2023-01-31T10:36:15;101220.97;;;4.94;77.78
46045;BME280;31781;54.094;13.428;2023-01-31T10:38:25;101219.97;;;4.95;77.46
46045;BME280;31781;54.094;13.428;2023-01-31T10:40:34;101205.31;;;4.97;77.43
46045;BME280;31781;54.094;13.428;2023-01-31T10:42:38;101199.06;;;4.97;77.15
46045;BME280;31781;54.094;13.428;2023-01-31T10:44:44;101203.28;;;4.99;77.62
46045;BME280;31781;54.094;13.428;2023-01-31T10:46:47;101194.19;;;5.00;78.28
46045;BME280;31781;54.094;13.428;2023-01-31T10:48:49;101188.47;;;5.03;77.59
46045;BME280;31781;54.094;13.428;2023-01-31T10:50:58;101188.31;;;5.05;77.87
46045;BME280;31781;54.094;13.428;2023-01-31T10:53:10;101181.94;;;5.06;77.51
46045;BME280;31781;54.094;13.428;2023-01-31T10:57:43;101173.66;;;5.07;77.86
46045;BME280;31781;54.094;13.428;2023-01-31T10:59:46;101162.72;;;5.09;78.46
46045;BME280;31781;54.094;13.428;2023-01-31T11:01:50;101166.25;;;5.09;78.54